Time;durP1;ratioP1;P1;durP2;ratioP2;P2;SDS_P1;SDS_P2;PMS_P1;PMS_P2;Temp;Humidity;BMP_temperature;BMP_pressure;BME280_temperature;BME280_humidity;BME280_pressure;Samples;Min_cycle;Max_cycle;Signal;HPM_P1;HPM_P2
2023/05/04 00:00:09;;;;;;;;;;;;;;;22.78;39.78;101830.88;7252460;19;154197;-61
2023/05/04 00:02:36;;;;;;;;;;;;;;;22.77;39.81;101834.81;7261522;19;153627;-62
2023/05/04 00:05:04;;;;;;;;;;;;;;;22.72;40.10;101825.59;7252273;19;157366;-62
2023/05/04 00:07:31;;;;;;;;;;;;;;;22.75;40.02;101833.47;7252704;19;155399;-62
2023/05/04 00:09:58;;;;;;;;;;;;;;;22.75;39.89;101828.66;7257346;19;153856;-63
2023/05/04 00:12:26;;;;;;;;;;;;;;;22.74;40.16;101834.59;7256235;19;152316;-63
2023/05/04 00:14:53;;;;;;;;;;;;;;;22.75;40.33;101823.03;7250711;19;155082;-62
2023/05/04 00:17:19;;;;;;;;;;;;;;;22.72;40.71;101822.78;7264322;19;154255;-62
2023/05/04 00:19:46;;;;;;;;;;;;;;;22.70;40.45;101817.47;7255405;19;153497;-62
2023/05/04 00:22:13;;;;;;;;;;;;;;;22.68;40.90;101818.84;7259587;19;154079;-62
2023/05/04 00:24:42;;;;;;;;;;;;;;;22.65;40.98;101808.19;7253291;19;152931;-62
2023/05/04 00:27:09;;;;;;;;;;;;;;;22.63;41.05;101803.69;7255723;19;154615;-62
2023/05/04 00:29:36;;;;;;;;;;;;;;;22.60;41.32;101795.88;7251954;19;154496;-62
2023/05/04 00:32:04;;;;;;;;;;;;;;;22.59;41.37;101798.97;7257957;19;154673;-62
2023/05/04 00:34:33;;;;;;;;;;;;;;;22.56;41.34;101796.78;7253431;19;153516;-63
2023/05/04 00:37:00;;;;;;;;;;;;;;;22.53;41.25;101797.38;7266121;19;153207;-62
2023/05/04 00:39:27;;;;;;;;;;;;;;;22.50;41.42;101797.97;7252709;19;153437;-61
2023/05/04 00:41:54;;;;;;;;;;;;;;;22.49;41.63;101793.47;7257004;19;153982;-61
2023/05/04 00:44:22;;;;;;;;;;;;;;;22.46;41.56;101789.28;7251975;19;153497;-62
2023/05/04 00:46:51;;;;;;;;;;;;;;;22.46;41.93;101780.00;7254228;19;154954;-61
2023/05/04 00:49:20;;;;;;;;;;;;;;;22.45;42.04;101775.50;7257331;19;153521;-62
2023/05/04 00:51:48;;;;;;;;;;;;;;;22.44;42.01;101771.03;7252137;19;153442;-61
2023/05/04 00:54:16;;;;;;;;;;;;;;;22.42;41.83;101767.66;7252995;19;153353;-61
2023/05/04 00:56:44;;;;;;;;;;;;;;;22.40;42.04;101761.47;7254050;19;153494;-61
2023/05/04 00:59:12;;;;;;;;;;;;;;;22.39;41.87;101762.66;7261391;19;154378;-61
2023/05/04 01:01:40;;;;;;;;;;;;;;;22.38;42.40;101763.78;7254699;19;153655;-62
2023/05/04 01:04:07;;;;;;;;;;;;;;;22.37;42.14;101754.50;7254980;19;153984;-61
2023/05/04 01:06:47;;;;;;;;;;;;;;;22.35;41.95;101753.13;7253622;19;152148;-61
2023/05/04 01:09:21;;;;;;;;;;;;;;;22.34;41.99;101751.44;7257333;19;153956;-61
2023/05/04 01:11:57;;;;;;;;;;;;;;;22.32;42.44;101748.91;7257126;19;154256;-62
2023/05/04 01:14:24;;;;;;;;;;;;;;;22.31;42.14;101740.75;7253736;19;153148;-62
2023/05/04 01:16:54;;;;;;;;;;;;;;;22.29;42.22;101738.28;7256554;19;154576;-61
2023/05/04 01:19:22;;;;;;;;;;;;;;;22.28;42.16;101736.59;7254283;19;153303;-61
2023/05/04 01:21:48;;;;;;;;;;;;;;;22.26;42.46;101729.59;7259702;19;156032;-61
2023/05/04 01:24:15;;;;;;;;;;;;;;;22.26;42.26;101729.59;7255617;19;154176;-61
2023/05/04 01:26:44;;;;;;;;;;;;;;;22.25;42.33;101722.28;7251338;19;152540;-61
2023/05/04 01:29:21;;;;;;;;;;;;;;;22.24;42.20;101714.97;7255404;19;154674;-61
2023/05/04 01:31:48;;;;;;;;;;;;;;;22.21;42.66;101712.75;7252625;19;154574;-64
2023/05/04 01:34:16;;;;;;;;;;;;;;;22.20;42.27;101711.06;7255479;19;153052;-62
2023/05/04 01:36:44;;;;;;;;;;;;;;;22.17;42.35;101704.91;7253276;19;152266;-62
2023/05/04 01:39:14;;;;;;;;;;;;;;;22.16;42.66;101710.84;7254318;19;154312;-62
2023/05/04 01:41:41;;;;;;;;;;;;;;;22.15;42.78;101710.00;7256042;19;154321;-62
2023/05/04 01:44:08;;;;;;;;;;;;;;;22.14;42.59;101715.94;7262336;19;152500;-61
2023/05/04 01:46:35;;;;;;;;;;;;;;;22.13;42.46;101701.00;7252823;19;153963;-62
2023/05/04 01:49:02;;;;;;;;;;;;;;;22.13;42.92;101703.00;7255152;19;154365;-62
2023/05/04 01:51:29;;;;;;;;;;;;;;;22.12;42.74;101696.53;7256730;19;153364;-62
2023/05/04 01:53:56;;;;;;;;;;;;;;;22.10;42.72;101689.53;7254903;19;154369;-62
2023/05/04 01:56:23;;;;;;;;;;;;;;;22.09;42.80;101690.66;7250765;19;152096;-61
2023/05/04 01:58:50;;;;;;;;;;;;;;;22.09;43.01;101694.31;7253192;19;153778;-61
2023/05/04 02:01:16;;;;;;;;;;;;;;;22.06;42.87;101686.47;7251723;19;153580;-62
2023/05/04 02:03:43;;;;;;;;;;;;;;;22.05;42.74;101686.78;7251163;19;154113;-62
2023/05/04 02:06:10;;;;;;;;;;;;;;;22.05;42.78;101692.41;7256551;19;153926;-62
2023/05/04 02:08:38;;;;;;;;;;;;;;;22.02;43.28;101687.38;7251888;19;153646;-62
2023/05/04 02:11:04;;;;;;;;;;;;;;;22.01;43.17;101686.53;7253655;19;154150;-62
2023/05/04 02:13:31;;;;;;;;;;;;;;;22.02;43.13;101687.38;7252343;19;152327;-62
2023/05/04 02:15:58;;;;;;;;;;;;;;;22.00;43.22;101681.22;7252473;19;153608;-62
2023/05/04 02:18:25;;;;;;;;;;;;;;;21.99;43.01;101676.72;7251332;19;153401;-61
2023/05/04 02:20:52;;;;;;;;;;;;;;;21.99;42.94;101673.91;7254377;19;154373;-62
2023/05/04 02:23:19;;;;;;;;;;;;;;;21.99;42.93;101674.75;7251631;19;154311;-62
2023/05/04 02:25:46;;;;;;;;;;;;;;;21.96;43.12;101669.72;7254344;19;152600;-62
2023/05/04 02:28:12;;;;;;;;;;;;;;;21.95;43.35;101665.22;7259906;19;153762;-62
2023/05/04 02:30:40;;;;;;;;;;;;;;;21.93;43.37;101667.53;7252154;19;153579;-62
2023/05/04 02:33:07;;;;;;;;;;;;;;;21.93;43.44;101666.69;7249159;19;153483;-61
2023/05/04 02:35:35;;;;;;;;;;;;;;;21.92;43.47;101671.44;7254959;19;154359;-61
2023/05/04 02:38:02;;;;;;;;;;;;;;;21.93;43.03;101672.31;7252287;19;154109;-62
2023/05/04 02:40:29;;;;;;;;;;;;;;;21.90;43.40;101664.41;7252232;19;154829;-62
2023/05/04 02:42:56;;;;;;;;;;;;;;;21.88;43.80;101666.72;7250334;19;154845;-62
2023/05/04 02:45:22;;;;;;;;;;;;;;;21.88;43.47;101649.81;7251707;19;153274;-62
2023/05/04 02:47:49;;;;;;;;;;;;;;;21.85;43.95;101640.00;7260717;19;154840;-62
2023/05/04 02:50:16;;;;;;;;;;;;;;;21.85;43.69;101636.38;7253770;19;154376;-62
2023/05/04 02:52:43;;;;;;;;;;;;;;;21.86;44.04;101632.41;7250161;19;154242;-62
2023/05/04 02:55:10;;;;;;;;;;;;;;;21.84;44.18;101623.44;7250453;19;153630;-62
2023/05/04 02:57:37;;;;;;;;;;;;;;;21.82;43.99;101622.88;7252873;19;154298;-62
2023/05/04 03:00:05;;;;;;;;;;;;;;;21.82;44.34;101618.09;7246512;19;154960;-61
2023/05/04 03:02:32;;;;;;;;;;;;;;;21.79;44.07;101624.34;7249315;19;152335;-62
2023/05/04 03:05:00;;;;;;;;;;;;;;;21.78;44.30;101631.09;7250897;19;154156;-62
2023/05/04 03:07:27;;;;;;;;;;;;;;;21.77;44.32;101632.22;7249728;19;153463;-62
2023/05/04 03:09:54;;;;;;;;;;;;;;;21.78;43.95;101619.00;7260261;19;153464;-61
2023/05/04 03:12:21;;;;;;;;;;;;;;;21.78;44.23;101621.81;7250804;19;155043;-62
2023/05/04 03:14:48;;;;;;;;;;;;;;;21.77;44.16;101618.16;7253599;19;152178;-62
2023/05/04 03:17:15;;;;;;;;;;;;;;;21.74;44.16;101614.00;7260480;19;154776;-65
2023/05/04 03:19:42;;;;;;;;;;;;;;;21.73;44.16;101612.31;7257379;19;155875;-63
2023/05/04 03:22:09;;;;;;;;;;;;;;;21.74;44.02;101611.19;7260103;19;153257;-62
2023/05/04 03:24:36;;;;;;;;;;;;;;;21.73;44.11;101606.69;7256742;19;153982;-62
2023/05/04 03:27:03;;;;;;;;;;;;;;;21.71;44.12;101603.31;7258144;19;153491;-62
2023/05/04 03:29:30;;;;;;;;;;;;;;;21.71;44.40;101602.50;7257292;19;153643;-63
2023/05/04 03:31:57;;;;;;;;;;;;;;;21.71;44.25;101594.88;7263945;19;153505;-62
2023/05/04 03:34:24;;;;;;;;;;;;;;;21.70;44.28;101598.00;7256009;19;152931;-62
2023/05/04 03:36:51;;;;;;;;;;;;;;;21.69;44.23;101599.16;7261124;19;153511;-63
2023/05/04 03:39:18;;;;;;;;;;;;;;;21.67;44.22;101599.44;7254475;19;152804;-62
2023/05/04 03:41:45;;;;;;;;;;;;;;;21.66;44.50;101592.16;7256138;19;153187;-62
2023/05/04 03:44:12;;;;;;;;;;;;;;;21.65;44.24;101587.66;7255880;19;153787;-62
2023/05/04 03:46:39;;;;;;;;;;;;;;;21.64;44.54;101585.13;7258152;19;154214;-62
2023/05/04 03:49:06;;;;;;;;;;;;;;;21.64;44.26;101577.53;7255546;19;153649;-62
2023/05/04 03:51:32;;;;;;;;;;;;;;;21.63;44.30;101572.22;7261875;19;153512;-61
2023/05/04 03:54:00;;;;;;;;;;;;;;;21.61;44.11;101566.91;7267837;19;154716;-62
2023/05/04 03:56:27;;;;;;;;;;;;;;;21.59;44.50;101571.97;7258967;19;153620;-62
2023/05/04 03:58:54;;;;;;;;;;;;;;;21.60;44.34;101561.56;7258446;19;153636;-62
2023/05/04 04:01:20;;;;;;;;;;;;;;;21.58;44.24;101559.06;7256004;19;152945;-61
2023/05/04 04:03:47;;;;;;;;;;;;;;;21.57;44.09;101551.78;7254372;19;154191;-62
2023/05/04 04:06:14;;;;;;;;;;;;;;;21.55;44.58;101545.59;7255036;19;155405;-62
2023/05/04 04:08:41;;;;;;;;;;;;;;;21.57;44.43;101542.50;7253875;19;153601;-62
2023/05/04 04:11:08;;;;;;;;;;;;;;;21.55;44.53;101542.78;7254675;19;156240;-62
2023/05/04 04:13:35;;;;;;;;;;;;;;;21.54;44.62;101541.13;7254322;19;153461;-62
2023/05/04 04:16:02;;;;;;;;;;;;;;;21.53;44.80;101544.25;7263994;19;152903;-61
2023/05/04 04:18:29;;;;;;;;;;;;;;;21.52;44.58;101543.41;7253375;19;154248;-61
2023/05/04 04:20:55;;;;;;;;;;;;;;;21.50;44.82;101547.63;7255579;19;153721;-61
2023/05/04 04:23:23;;;;;;;;;;;;;;;21.49;44.75;101540.34;7258167;19;152993;-61
2023/05/04 04:25:50;;;;;;;;;;;;;;;21.50;44.67;101536.38;7252140;19;153925;-62
2023/05/04 04:28:17;;;;;;;;;;;;;;;21.50;44.62;101544.81;7255587;19;153018;-61
2023/05/04 04:30:44;;;;;;;;;;;;;;;21.47;44.88;101537.84;7256606;19;153196;-61
2023/05/04 04:33:11;;;;;;;;;;;;;;;21.48;44.88;101533.06;7257160;19;154133;-61
2023/05/04 04:35:38;;;;;;;;;;;;;;;21.46;44.52;101522.09;7257199;19;153817;-61
2023/05/04 04:38:05;;;;;;;;;;;;;;;21.47;44.69;101531.38;7265532;19;153218;-61
2023/05/04 04:40:32;;;;;;;;;;;;;;;21.44;44.56;101529.19;7258633;19;154207;-61
2023/05/04 04:42:59;;;;;;;;;;;;;;;21.44;44.92;101532.00;7256713;19;154635;-61
2023/05/04 04:45:26;;;;;;;;;;;;;;;21.44;44.80;101537.63;7252876;19;153847;-61
2023/05/04 04:47:53;;;;;;;;;;;;;;;21.41;45.00;101533.41;7253438;19;154067;-60
2023/05/04 04:50:20;;;;;;;;;;;;;;;21.41;44.98;101529.75;7258100;19;154797;-61
2023/05/04 04:52:47;;;;;;;;;;;;;;;21.41;44.71;101538.19;7253365;19;153564;-61
2023/05/04 04:55:15;;;;;;;;;;;;;;;21.41;44.59;101536.22;7256854;19;153761;-60
2023/05/04 04:57:44;;;;;;;;;;;;;;;21.38;45.14;101528.41;7258821;19;154593;-62
2023/05/04 05:00:13;;;;;;;;;;;;;;;21.37;44.98;101528.69;7253475;19;154047;-61
2023/05/04 05:02:40;;;;;;;;;;;;;;;21.37;45.01;101523.91;7255077;19;154588;-61
2023/05/04 05:05:10;;;;;;;;;;;;;;;21.38;44.89;101519.97;7255676;19;153568;-61
2023/05/04 05:07:37;;;;;;;;;;;;;;;21.38;45.05;101519.97;7255631;19;153011;-62
2023/05/04 05:10:04;;;;;;;;;;;;;;;21.36;44.91;101522.22;7255622;19;155979;-62
2023/05/04 05:12:31;;;;;;;;;;;;;;;21.36;45.07;101518.56;7255513;19;153859;-62
2023/05/04 05:14:58;;;;;;;;;;;;;;;21.34;44.90;101516.09;7252947;19;153759;-62
2023/05/04 05:17:25;;;;;;;;;;;;;;;21.33;44.68;101513.56;7254239;19;153193;-62
2023/05/04 05:19:52;;;;;;;;;;;;;;;21.34;44.95;101515.25;7262817;19;153748;-62
2023/05/04 05:22:19;;;;;;;;;;;;;;;21.33;44.64;101513.56;7255498;19;153918;-61
2023/05/04 05:24:46;;;;;;;;;;;;;;;21.32;45.26;101506.25;7254459;19;154214;-61
2023/05/04 05:27:13;;;;;;;;;;;;;;;21.35;45.03;101512.09;7252644;19;154112;-62
2023/05/04 05:29:40;;;;;;;;;;;;;;;21.30;44.95;101507.38;7251799;19;153736;-61
2023/05/04 05:32:07;;;;;;;;;;;;;;;21.30;45.33;101501.78;7253417;19;154294;-63
2023/05/04 05:34:37;;;;;;;;;;;;;;;21.30;45.11;101495.34;7252501;19;154105;-62
2023/05/04 05:37:04;;;;;;;;;;;;;;;21.27;45.00;101493.94;7257063;19;153417;-62
2023/05/04 05:39:31;;;;;;;;;;;;;;;21.28;45.31;101489.16;7253655;19;153726;-62
2023/05/04 05:41:58;;;;;;;;;;;;;;;21.24;45.45;101483.31;7262747;19;152649;-62
2023/05/04 05:44:28;;;;;;;;;;;;;;;21.24;45.48;101480.50;7250106;19;154011;-62
2023/05/04 05:46:55;;;;;;;;;;;;;;;21.26;45.02;101488.63;7253244;19;154582;-62
2023/05/04 05:49:22;;;;;;;;;;;;;;;21.29;45.40;101482.41;7252468;19;153033;-63
2023/05/04 05:51:49;;;;;;;;;;;;;;;21.25;44.99;101470.09;7253180;19;154271;-62
2023/05/04 05:54:16;;;;;;;;;;;;;;;21.26;45.18;101463.31;7254852;19;152148;-66
2023/05/04 05:56:43;;;;;;;;;;;;;;;21.25;45.15;101464.47;7253221;19;155341;-61
2023/05/04 05:59:10;;;;;;;;;;;;;;;21.24;45.26;101460.00;7247382;19;155721;-62
2023/05/04 06:01:36;;;;;;;;;;;;;;;21.22;45.50;101451.84;7257176;19;153534;-62
2023/05/04 06:04:03;;;;;;;;;;;;;;;21.22;45.33;101454.66;7257779;19;155511;-61
2023/05/04 06:06:33;;;;;;;;;;;;;;;21.22;45.53;101445.38;7254682;19;153610;-62
2023/05/04 06:09:00;;;;;;;;;;;;;;;21.21;45.52;101452.97;7253463;19;152899;-62
2023/05/04 06:11:27;;;;;;;;;;;;;;;21.21;45.18;101452.16;7251425;19;156137;-62
2023/05/04 06:13:54;;;;;;;;;;;;;;;21.21;45.53;101446.56;7252460;19;152537;-62
2023/05/04 06:16:21;;;;;;;;;;;;;;;21.19;45.29;101438.41;7249385;19;154113;-62
2023/05/04 06:18:48;;;;;;;;;;;;;;;21.17;45.64;101429.44;7253839;19;154586;-63
2023/05/04 06:21:15;;;;;;;;;;;;;;;21.22;45.73;101439.78;7254664;19;154234;-61
2023/05/04 06:23:41;;;;;;;;;;;;;;;21.24;45.46;101429.91;7218566;19;156191;-62
2023/05/04 06:26:08;;;;;;;;;;;;;;;21.23;45.91;101427.41;7251410;19;155387;-62
2023/05/04 06:28:35;;;;;;;;;;;;;;;21.24;46.07;101429.91;7248474;19;154827;-62
2023/05/04 06:31:02;;;;;;;;;;;;;;;21.29;45.65;101423.38;7250019;19;154247;-62
2023/05/04 06:33:29;;;;;;;;;;;;;;;21.34;45.39;101419.69;7252438;19;153439;-62
2023/05/04 06:35:59;;;;;;;;;;;;;;;21.40;45.03;101416.47;7246072;19;154050;-60
2023/05/04 06:38:26;;;;;;;;;;;;;;;21.39;44.69;101414.81;7247210;19;153915;-59
2023/05/04 06:40:53;;;;;;;;;;;;;;;21.39;43.90;101406.38;7250141;19;154577;-61
2023/05/04 06:43:20;;;;;;;;;;;;;;;21.28;42.37;101391.63;7247694;19;153762;-61
2023/05/04 06:45:47;;;;;;;;;;;;;;;21.25;42.54;101382.97;7247721;19;154037;-61
2023/05/04 06:48:14;;;;;;;;;;;;;;;21.21;42.35;101371.47;7257959;19;154043;-61
2023/05/04 06:50:41;;;;;;;;;;;;;;;21.28;41.73;101383.19;7253694;19;154825;-61
2023/05/04 06:53:10;;;;;;;;;;;;;;;21.27;41.15;101383.50;7256038;19;153883;-61
2023/05/04 06:55:37;;;;;;;;;;;;;;;21.23;41.12;101368.38;7254780;19;153534;-61
2023/05/04 06:58:06;;;;;;;;;;;;;;;21.24;40.90;101361.63;7256256;19;154858;-61
2023/05/04 07:00:34;;;;;;;;;;;;;;;21.23;41.21;101371.19;7253440;19;154424;-61
2023/05/04 07:03:01;;;;;;;;;;;;;;;21.23;40.88;101371.19;7258131;19;153458;-61
2023/05/04 07:05:28;;;;;;;;;;;;;;;21.26;40.69;101370.56;7252629;19;153410;-61
2023/05/04 07:07:57;;;;;;;;;;;;;;;21.32;40.80;101362.91;7267488;19;154437;-61
2023/05/04 07:10:24;;;;;;;;;;;;;;;21.28;40.45;101362.69;7254280;19;154152;-61
2023/05/04 07:12:52;;;;;;;;;;;;;;;21.33;40.70;101356.16;7259195;19;153956;-61
2023/05/04 07:15:20;;;;;;;;;;;;;;;21.34;40.60;101352.22;7257993;19;153700;-61
2023/05/04 07:17:47;;;;;;;;;;;;;;;21.33;40.71;101358.97;7258607;19;154069;-61
2023/05/04 07:20:14;;;;;;;;;;;;;;;21.47;40.60;101337.38;7257607;19;154049;-61
2023/05/04 07:22:42;;;;;;;;;;;;;;;21.58;41.33;101325.66;7261251;19;154409;-64
2023/05/04 07:25:09;;;;;;;;;;;;;;;21.73;41.31;101319.78;7254983;19;153987;-61
2023/05/04 07:27:36;;;;;;;;;;;;;;;21.82;41.17;101321.88;7255252;19;153860;-62
2023/05/04 07:30:05;;;;;;;;;;;;;;;21.87;41.80;101333.06;7260057;19;154542;-61
2023/05/04 07:32:32;;;;;;;;;;;;;;;21.94;41.70;101325.09;7255995;19;153176;-61
2023/05/04 07:35:00;;;;;;;;;;;;;;;22.00;41.80;101335.94;7259010;19;153500;-61
2023/05/04 07:37:26;;;;;;;;;;;;;;;22.03;41.64;101332.50;7254818;19;155029;-62
2023/05/04 07:40:00;;;;;;;;;;;;;;;22.08;41.55;101340.84;7253642;19;154086;-61
2023/05/04 07:42:29;;;;;;;;;;;;;;;22.12;41.74;101347.53;7252886;19;155066;-61
2023/05/04 07:44:57;;;;;;;;;;;;;;;22.19;41.66;101352.75;7252816;19;153095;-62
2023/05/04 07:47:24;;;;;;;;;;;;;;;22.23;41.47;101345.38;7257400;19;154275;-61
2023/05/04 07:49:58;;;;;;;;;;;;;;;22.27;41.42;101342.75;7258802;19;153155;-61
2023/05/04 07:52:29;;;;;;;;;;;;;;;22.31;41.54;101332.53;7263678;19;154001;-61
2023/05/04 07:54:56;;;;;;;;;;;;;;;22.34;41.09;101346.00;7259567;19;153668;-61
2023/05/04 07:57:23;;;;;;;;;;;;;;;22.37;41.22;101357.47;7259317;19;156103;-61
2023/05/04 07:59:53;;;;;;;;;;;;;;;22.41;41.34;101346.41;7255884;19;154531;-62
2023/05/04 08:02:23;;;;;;;;;;;;;;;22.61;42.66;101346.88;7254999;19;153805;-58
2023/05/04 08:04:50;;;;;;;;;;;;;;;22.70;42.49;101343.34;7255276;19;154103;-60
2023/05/04 08:07:18;;;;;;;;;;;;;;;22.75;42.75;101337.59;7256427;19;152462;-59
2023/05/04 08:09:51;;;;;;;;;;;;;;;22.77;42.39;101338.94;7254647;19;153398;-60
2023/05/04 08:12:20;;;;;;;;;;;;;;;22.81;42.61;101336.31;7257759;19;154816;-60
2023/05/04 08:14:47;;;;;;;;;;;;;;;22.81;42.26;101344.78;7261449;19;153794;-60
2023/05/04 08:17:14;;;;;;;;;;;;;;;22.80;42.30;101338.34;7255358;19;153137;-61
2023/05/04 08:19:41;;;;;;;;;;;;;;;22.79;42.39;101328.22;7258433;19;153170;-61
2023/05/04 08:22:09;;;;;;;;;;;;;;;22.78;42.29;101339.78;7259329;19;154812;-61
2023/05/04 08:24:36;;;;;;;;;;;;;;;22.78;42.48;101345.41;7257239;19;154980;-60
2023/05/04 08:27:05;;;;;;;;;;;;;;;22.77;42.10;101352.19;7257787;19;153533;-60
2023/05/04 08:29:36;;;;;;;;;;;;;;;22.75;42.09;101346.06;7252888;19;154511;-60
2023/05/04 08:32:03;;;;;;;;;;;;;;;22.74;42.08;101333.94;7256200;19;153625;-61
2023/05/04 08:34:30;;;;;;;;;;;;;;;22.74;42.13;101344.38;7256258;19;154383;-60
2023/05/04 08:36:57;;;;;;;;;;;;;;;22.69;42.22;101348.09;7264829;19;154269;-60
2023/05/04 08:39:24;;;;;;;;;;;;;;;22.66;42.64;101347.91;7252759;19;153488;-60
2023/05/04 08:41:52;;;;;;;;;;;;;;;22.63;42.09;101344.56;7258977;19;153950;-61
2023/05/04 08:44:20;;;;;;;;;;;;;;;22.62;42.33;101345.69;7255873;19;154087;-60
2023/05/04 08:46:52;;;;;;;;;;;;;;;22.61;42.30;101337.59;7255466;19;153584;-60
2023/05/04 08:49:20;;;;;;;;;;;;;;;22.61;42.41;101334.75;7252612;19;153672;-60
2023/05/04 08:51:48;;;;;;;;;;;;;;;22.58;42.06;101324.94;7250897;19;153357;-60
2023/05/04 08:54:15;;;;;;;;;;;;;;;22.57;42.08;101314.84;7251304;19;154399;-60
2023/05/04 08:56:45;;;;;;;;;;;;;;;22.54;42.43;101304.19;7254699;19;154308;-60
2023/05/04 08:59:18;;;;;;;;;;;;;;;22.55;42.43;101277.69;7259307;19;153113;-60
2023/05/04 09:01:46;;;;;;;;;;;;;;;22.51;42.57;101287.94;7258543;19;153833;-60
2023/05/04 09:04:13;;;;;;;;;;;;;;;22.53;42.20;101277.16;7252038;19;155798;-60
2023/05/04 09:06:40;;;;;;;;;;;;;;;22.57;42.13;101285.84;7255063;19;154475;-60
2023/05/04 09:09:08;;;;;;;;;;;;;;;22.58;42.55;101265.78;7254655;19;153587;-60
2023/05/04 09:11:36;;;;;;;;;;;;;;;22.61;42.44;101259.56;7251354;19;154618;-60
2023/05/04 09:14:03;;;;;;;;;;;;;;;22.62;42.32;101249.94;7251361;19;153248;-62
2023/05/04 09:16:35;;;;;;;;;;;;;;;22.61;42.53;101247.44;7254732;19;154093;-60
2023/05/04 09:19:03;;;;;;;;;;;;;;;22.63;42.32;101248.78;7260178;19;154313;-61
2023/05/04 09:21:30;;;;;;;;;;;;;;;22.64;42.22;101255.25;7253338;19;153391;-60
2023/05/04 09:23:58;;;;;;;;;;;;;;;22.66;42.29;101246.50;7256776;19;157187;-60
2023/05/04 09:26:26;;;;;;;;;;;;;;;22.67;42.46;101242.53;7254924;19;153419;-60
2023/05/04 09:28:53;;;;;;;;;;;;;;;22.67;42.22;101236.91;7253606;19;154903;-59
2023/05/04 09:31:22;;;;;;;;;;;;;;;22.67;42.31;101240.53;7252100;19;154259;-60
2023/05/04 09:33:49;;;;;;;;;;;;;;;22.69;42.42;101231.78;7252921;19;152285;-60
2023/05/04 09:36:20;;;;;;;;;;;;;;;22.70;42.41;101241.94;7254510;19;154687;-60
2023/05/04 09:38:47;;;;;;;;;;;;;;;22.70;42.10;101237.13;7255518;19;153725;-60
2023/05/04 09:41:15;;;;;;;;;;;;;;;22.73;42.01;101224.38;7261419;19;154184;-60
2023/05/04 09:43:43;;;;;;;;;;;;;;;22.73;41.96;101216.78;7255331;19;154072;-60
2023/05/04 09:46:18;;;;;;;;;;;;;;;22.75;42.06;101211.66;7251715;19;151984;-60
2023/05/04 09:48:54;;;;;;;;;;;;;;;22.77;41.89;101214.16;7256159;19;153415;-60
2023/05/04 09:51:22;;;;;;;;;;;;;;;22.75;42.13;101211.66;7253444;19;154700;-60
2023/05/04 09:53:50;;;;;;;;;;;;;;;22.75;41.81;101233.38;7255898;19;154125;-60
2023/05/04 09:56:25;;;;;;;;;;;;;;;22.77;41.75;101225.41;7255398;19;154024;-60
2023/05/04 09:58:56;;;;;;;;;;;;;;;22.76;42.00;101218.94;7252471;19;154092;-60
2023/05/04 10:01:27;;;;;;;;;;;;;;;22.80;42.15;101219.16;7255448;19;154335;-60
2023/05/04 10:03:55;;;;;;;;;;;;;;;22.81;42.14;101201.09;7260269;19;153231;-60
2023/05/04 10:06:23;;;;;;;;;;;;;;;22.80;41.82;101196.63;7254640;19;154233;-60
2023/05/04 10:08:50;;;;;;;;;;;;;;;22.80;41.78;101200.28;7254554;19;154398;-60
2023/05/04 10:11:19;;;;;;;;;;;;;;;22.79;41.69;101200.59;7251978;19;154240;-60
2023/05/04 10:13:47;;;;;;;;;;;;;;;22.81;42.13;101198.28;7254696;19;153754;-60
2023/05/04 10:16:24;;;;;;;;;;;;;;;22.81;41.79;101195.47;7251973;19;153519;-59
2023/05/04 10:19:01;;;;;;;;;;;;;;;22.78;42.03;101190.47;7250581;19;153443;-60
2023/05/04 10:21:33;;;;;;;;;;;;;;;22.72;41.73;101188.91;7249486;19;153940;-61
2023/05/04 10:24:13;;;;;;;;;;;;;;;22.71;41.96;101185.28;7251337;19;153236;-60
2023/05/04 10:26:50;;;;;;;;;;;;;;;22.68;41.76;101177.41;7260658;19;154882;-60
2023/05/04 10:29:21;;;;;;;;;;;;;;;22.69;42.04;101162.19;7251080;19;154252;-60
2023/05/04 10:31:50;;;;;;;;;;;;;;;22.73;41.82;101151.16;7251624;19;156052;-60
2023/05/04 10:34:25;;;;;;;;;;;;;;;22.74;41.63;101159.28;7252538;19;153390;-60
2023/05/04 10:36:53;;;;;;;;;;;;;;;22.79;41.82;101147.91;7252996;19;153988;-60
2023/05/04 10:39:21;;;;;;;;;;;;;;;22.81;41.55;101136.28;7248540;19;154781;-60
2023/05/04 10:41:58;;;;;;;;;;;;;;;22.76;41.80;101142.09;7253532;19;153385;-60
2023/05/04 10:44:27;;;;;;;;;;;;;;;22.79;41.80;101149.88;7250010;19;154639;-60
2023/05/04 10:46:55;;;;;;;;;;;;;;;22.81;41.81;101147.56;7252743;19;153568;-65
2023/05/04 10:49:25;;;;;;;;;;;;;;;22.83;41.98;101139.63;7258990;19;154036;-60
2023/05/04 10:52:02;;;;;;;;;;;;;;;22.81;41.96;101134.31;7249921;19;154528;-60
2023/05/04 10:54:32;;;;;;;;;;;;;;;22.82;41.92;101119.09;7250371;19;153358;-60
2023/05/04 10:57:01;;;;;;;;;;;;;;;22.80;41.63;101129.03;7250380;19;154295;-60
2023/05/04 10:59:28;;;;;;;;;;;;;;;22.78;41.64;101118.06;7249380;19;155909;-60
2023/05/04 11:01:55;;;;;;;;;;;;;;;22.76;42.10;101123.16;7249455;19;154114;-60
2023/05/04 11:04:23;;;;;;;;;;;;;;;22.78;41.93;101122.84;7250645;19;153806;-60
2023/05/04 11:06:56;;;;;;;;;;;;;;;22.77;41.62;101116.38;7250077;19;153201;-66
2023/05/04 11:09:25;;;;;;;;;;;;;;;22.77;41.88;101127.66;7260197;19;153373;-59
2023/05/04 11:11:53;;;;;;;;;;;;;;;22.73;42.18;101128.63;7250457;19;155417;-60
2023/05/04 11:14:23;;;;;;;;;;;;;;;22.70;42.04;101134.91;7249123;19;154251;-60
2023/05/04 11:16:51;;;;;;;;;;;;;;;22.65;41.98;101126.53;7249608;19;153446;-60
2023/05/04 11:19:18;;;;;;;;;;;;;;;22.62;41.90;101128.81;7247920;19;156832;-60
2023/05/04 11:21:45;;;;;;;;;;;;;;;22.58;42.18;101132.59;7251136;19;154115;-60
2023/05/04 11:24:13;;;;;;;;;;;;;;;22.58;42.14;101124.13;7251102;19;153118;-60
2023/05/04 11:26:48;;;;;;;;;;;;;;;22.53;42.17;101121.47;7252532;19;155515;-60
2023/05/04 11:29:15;;;;;;;;;;;;;;;22.52;42.09;101100.09;7250714;19;153121;-60
2023/05/04 11:31:54;;;;;;;;;;;;;;;22.51;41.85;101102.06;7256798;19;154065;-62
2023/05/04 11:34:22;;;;;;;;;;;;;;;22.49;42.17;101079.00;7248538;19;153701;-60
2023/05/04 11:36:49;;;;;;;;;;;;;;;22.47;41.94;101072.88;7259230;19;153361;-60
2023/05/04 11:39:16;;;;;;;;;;;;;;;22.48;42.03;101063.28;7254411;19;153070;-60
2023/05/04 11:41:44;;;;;;;;;;;;;;;22.48;41.74;101060.47;7259866;19;153223;-60
2023/05/04 11:44:12;;;;;;;;;;;;;;;22.44;42.03;101067.88;7253746;19;154091;-60
2023/05/04 11:46:39;;;;;;;;;;;;;;;22.43;42.02;101062.56;7254910;19;154080;-59
2023/05/04 11:49:06;;;;;;;;;;;;;;;22.42;41.82;101066.53;7256208;19;152828;-60
2023/05/04 11:51:33;;;;;;;;;;;;;;;22.42;42.16;101086.25;7255498;19;154941;-60
2023/05/04 11:54:01;;;;;;;;;;;;;;;22.40;41.84;101080.09;7266507;19;153967;-60
2023/05/04 11:56:28;;;;;;;;;;;;;;;22.38;42.03;101076.78;7257284;19;153712;-60
2023/05/04 11:59:06;;;;;;;;;;;;;;;22.36;41.96;101073.44;7255085;19;154408;-60
2023/05/04 12:01:33;;;;;;;;;;;;;;;22.35;41.89;101050.06;7256841;19;154615;-60
2023/05/04 12:04:01;;;;;;;;;;;;;;;22.36;42.20;101046.13;7255492;19;154361;-60
2023/05/04 12:06:30;;;;;;;;;;;;;;;22.37;42.31;101044.13;7257225;19;154013;-60
2023/05/04 12:09:01;;;;;;;;;;;;;;;22.37;41.85;101036.53;7256160;19;155635;-60
2023/05/04 12:11:29;;;;;;;;;;;;;;;22.39;42.17;101033.41;7254048;19;154369;-60
2023/05/04 12:14:06;;;;;;;;;;;;;;;22.35;41.89;101035.19;7257238;19;153497;-60
2023/05/04 12:16:33;;;;;;;;;;;;;;;22.33;42.28;101035.50;7265757;19;153812;-60
2023/05/04 12:19:03;;;;;;;;;;;;;;;22.32;42.32;101022.56;7254459;19;153432;-60
2023/05/04 12:21:31;;;;;;;;;;;;;;;22.31;42.23;101006.00;7255735;19;154666;-61
2023/05/04 12:23:59;;;;;;;;;;;;;;;22.30;42.08;100998.72;7256707;19;154209;-60
2023/05/04 12:26:27;;;;;;;;;;;;;;;22.29;41.85;100994.22;7255333;19;154330;-60
2023/05/04 12:28:55;;;;;;;;;;;;;;;22.29;41.99;101011.13;7261629;19;153653;-58
2023/05/04 12:31:23;;;;;;;;;;;;;;;22.26;42.09;101021.03;7253292;19;153988;-60